Time;durP1;ratioP1;P1;durP2;ratioP2;P2;SDS_P1;SDS_P2;PMS_P1;PMS_P2;Temp;Humidity;BMP_temperature;BMP_pressure;BME280_temperature;BME280_humidity;BME280_pressure;Samples;Min_cycle;Max_cycle;Signal;HPM_P1;HPM_P2
2021/01/30 00:02:06;;;;;;;16.25;10.88;;;;;;;1.94;75.87;98534.84;5002479;28;20053;-73
2021/01/30 00:04:32;;;;;;;20.92;13.85;;;;;;;1.94;76.44;98517.50;5005874;28;20045;-73
2021/01/30 00:06:57;;;;;;;16.58;11.57;;;;;;;1.93;76.19;98507.06;5005419;28;20060;-73
2021/01/30 00:09:25;;;;;;;22.35;13.88;;;;;;;1.96;76.18;98507.06;5003179;28;20050;-73
2021/01/30 00:11:52;;;;;;;20.65;13.55;;;;;;;1.93;76.03;98509.69;5002343;28;20030;-73
2021/01/30 00:14:33;;;;;;;22.98;14.15;;;;;;;1.93;76.54;98507.94;5004139;28;20124;-73
2021/01/30 00:17:00;;;;;;;21.17;13.85;;;;;;;1.88;76.29;98499.28;5005312;28;20034;-73
2021/01/30 00:19:26;;;;;;;21.92;15.05;;;;;;;1.87;76.33;98494.09;5002636;28;20128;-73
2021/01/30 00:21:55;;;;;;;23.52;16.40;;;;;;;1.90;76.47;98494.94;5002008;28;20101;-73
2021/01/30 00:24:22;;;;;;;21.27;13.68;;;;;;;1.84;76.05;98507.13;5004293;28;20552;-73
2021/01/30 00:26:55;;;;;;;22.50;16.17;;;;;;;1.72;76.57;98500.22;5007353;28;20030;-73
2021/01/30 00:29:23;;;;;;;21.88;14.68;;;;;;;1.70;76.75;98486.34;5004030;28;20038;-73
2021/01/30 00:31:48;;;;;;;20.67;13.93;;;;;;;1.74;76.97;98491.53;5005476;28;20049;-73
2021/01/30 00:34:15;;;;;;;21.30;13.15;;;;;;;1.78;76.60;98484.56;5004205;28;20026;-73
2021/01/30 00:36:41;;;;;;;17.63;11.77;;;;;;;1.80;76.38;98475.03;5000558;28;20038;-74
2021/01/30 00:39:06;;;;;;;19.70;12.38;;;;;;;1.81;76.58;98469.00;5002000;28;20035;-73
2021/01/30 00:41:32;;;;;;;22.13;13.27;;;;;;;1.83;76.55;98474.16;5005086;28;20030;-72
2021/01/30 00:43:59;;;;;;;21.13;13.70;;;;;;;1.87;76.55;98471.56;5004913;28;20033;-73
2021/01/30 00:46:25;;;;;;;23.20;13.15;;;;;;;1.86;76.69;98466.34;5002087;28;20029;-73
2021/01/30 00:48:50;;;;;;;20.85;12.98;;;;;;;1.89;76.85;98471.56;5001607;28;20480;-73
2021/01/30 00:51:17;;;;;;;20.08;12.70;;;;;;;1.90;76.60;98460.28;5018103;28;20038;-72
2021/01/30 00:53:44;;;;;;;20.88;12.77;;;;;;;1.90;76.88;98457.66;5004899;28;20033;-72
2021/01/30 00:56:13;;;;;;;18.20;12.83;;;;;;;1.90;76.74;98449.88;5002556;28;20025;-72
2021/01/30 00:58:40;;;;;;;22.20;13.57;;;;;;;1.96;76.59;98452.44;5016426;28;20034;-73
2021/01/30 01:01:06;;;;;;;21.63;13.23;;;;;;;2.00;76.22;98448.94;5000146;28;20040;-73
2021/01/30 01:03:32;;;;;;;18.15;11.75;;;;;;;1.99;76.30;98444.59;5003452;28;20400;-73
2021/01/30 01:06:03;;;;;;;20.52;12.32;;;;;;;1.96;76.32;98447.22;5004394;28;20120;-73
2021/01/30 01:08:28;;;;;;;16.52;10.13;;;;;;;1.98;76.59;98454.16;5001440;28;20090;-73
2021/01/30 01:10:54;;;;;;;19.05;12.48;;;;;;;1.95;76.28;98461.13;5001085;28;20449;-73
2021/01/30 01:13:19;;;;;;;19.58;13.30;;;;;;;1.93;76.88;98450.69;5003138;28;20041;-74
2021/01/30 01:15:45;;;;;;;20.27;13.00;;;;;;;1.95;76.59;98454.16;5004218;28;20377;-73
2021/01/30 01:18:10;;;;;;;19.00;11.65;;;;;;;1.90;77.18;98449.88;5003869;28;20041;-73
2021/01/30 01:20:36;;;;;;;21.10;11.38;;;;;;;1.82;76.84;98449.03;5001084;28;20045;-73
2021/01/30 01:23:01;;;;;;;18.65;12.20;;;;;;;1.69;77.34;98454.28;5000955;28;20408;-72
2021/01/30 01:25:27;;;;;;;21.75;12.70;;;;;;;1.72;77.19;98449.06;5008176;28;20504;-73
2021/01/30 01:27:53;;;;;;;22.67;13.90;;;;;;;1.61;77.69;98445.66;5004331;28;20500;-73
2021/01/30 01:30:20;;;;;;;20.95;12.88;;;;;;;1.47;78.44;98448.31;5002099;28;20504;-73
2021/01/30 01:32:45;;;;;;;21.25;12.77;;;;;;;1.51;78.16;98444.81;5011745;28;20048;-73
2021/01/30 01:35:17;;;;;;;19.73;13.00;;;;;;;1.59;77.86;98442.19;5008479;28;20034;-72
2021/01/30 01:37:43;;;;;;;22.02;12.82;;;;;;;1.54;78.18;98429.19;5004248;28;20065;-73
2021/01/30 01:40:11;;;;;;;18.47;12.60;;;;;;;1.49;78.11;98441.38;5005865;28;20039;-72
2021/01/30 01:42:36;;;;;;;20.60;11.93;;;;;;;1.45;78.37;98438.78;5000651;28;20464;-73
2021/01/30 01:45:04;;;;;;;20.20;12.77;;;;;;;1.47;78.23;98429.25;5000466;28;20046;-72
2021/01/30 01:47:37;;;;;;;17.70;10.97;;;;;;;1.42;78.63;98434.44;5003525;28;20447;-73
2021/01/30 01:50:26;;;;;;;17.80;11.87;;;;;;;1.44;78.20;98437.91;5004522;28;20392;-73
2021/01/30 01:52:57;;;;;;;18.77;10.90;;;;;;;1.44;78.78;98447.44;5002468;28;20066;-72
2021/01/30 01:55:22;;;;;;;17.10;10.77;;;;;;;1.42;78.69;98437.06;5002599;28;20481;-73
2021/01/30 01:58:01;;;;;;;17.37;11.50;;;;;;;1.40;78.52;98437.94;5003796;28;20041;-74
2021/01/30 02:00:27;;;;;;;18.90;11.57;;;;;;;1.41;78.41;98437.03;5000733;28;20477;-73
2021/01/30 02:02:54;;;;;;;22.90;11.97;;;;;;;1.39;79.37;98444.88;5000234;28;20031;-73
2021/01/30 02:05:32;;;;;;;16.30;10.93;;;;;;;1.43;79.36;98456.97;5007602;28;20030;-72
2021/01/30 02:08:01;;;;;;;18.73;11.13;;;;;;;1.45;78.76;98460.44;5003737;28;20044;-73
2021/01/30 02:10:29;;;;;;;17.73;11.03;;;;;;;1.24;79.38;98455.28;5000485;28;20041;-73
2021/01/30 02:13:01;;;;;;;16.57;11.07;;;;;;;1.17;79.39;98462.22;4999589;28;20148;-72
2021/01/30 02:15:27;;;;;;;;;;;;;;;1.04;79.43;98468.31;5004076;28;20034;-73
2021/01/30 02:18:16;;;;;;;17.70;10.87;;;;;;;0.80;80.06;98470.03;5009833;28;19913;-73
2021/01/30 02:21:03;;;;;;;18.07;11.70;;;;;;;0.67;80.67;98477.84;5000015;28;20124;-73
2021/01/30 02:23:47;;;;;;;16.27;11.30;;;;;;;0.65;80.12;98477.81;5002035;28;20042;-73
2021/01/30 02:26:27;;;;;;;19.23;13.13;;;;;;;0.62;80.36;98475.22;5009530;28;20030;-73
2021/01/30 02:29:08;;;;;;;22.10;13.97;;;;;;;0.49;80.83;98484.72;5005049;28;20497;-73
2021/01/30 02:31:53;;;;;;;21.93;13.97;;;;;;;0.41;80.77;98492.50;4999993;28;20034;-73
2021/01/30 02:35:03;;;;;;;25.30;14.17;;;;;;;0.46;80.00;98494.25;5001879;28;20040;-73
2021/01/30 02:37:39;;;;;;;24.10;16.83;;;;;;;0.39;80.81;98496.84;5002886;28;20034;-73
2021/01/30 02:40:10;;;;;;;23.10;16.07;;;;;;;0.41;79.84;98497.69;5007868;28;20041;-73
2021/01/30 02:42:42;;;;;;;25.47;16.27;;;;;;;0.41;80.11;98508.06;4999163;28;20042;-73
2021/01/30 02:45:11;;;;;;;25.58;17.02;;;;;;;0.46;80.13;98499.44;5010796;28;20045;-73
2021/01/30 02:47:40;;;;;;;22.53;14.13;;;;;;;0.46;80.14;98510.69;5003552;28;20213;-73
2021/01/30 02:50:16;;;;;;;24.73;15.93;;;;;;;0.47;79.68;98512.41;5002974;28;20034;-73
2021/01/30 02:52:44;;;;;;;28.17;16.43;;;;;;;0.55;80.00;98515.03;5000067;28;20053;-73
2021/01/30 02:55:12;;;;;;;22.90;15.70;;;;;;;0.63;79.55;98516.78;5000211;28;20031;-72
2021/01/30 02:57:40;;;;;;;27.93;16.73;;;;;;;0.60;79.38;98521.97;5003244;28;20443;-73
2021/01/30 03:00:10;;;;;;;26.20;17.27;;;;;;;0.59;78.83;98524.56;5005611;28;20125;-73
2021/01/30 03:02:35;;;;;;;26.33;17.23;;;;;;;0.53;79.29;98540.13;5003283;28;20034;-73
2021/01/30 03:05:01;;;;;;;29.77;19.20;;;;;;;0.43;78.54;98550.47;5003295;28;20035;-73
2021/01/30 03:07:54;;;;;;;26.60;16.67;;;;;;;0.38;79.09;98562.56;5006343;28;20108;-72
2021/01/30 03:10:40;;;;;;;27.87;18.17;;;;;;;0.28;79.51;98573.78;5004568;28;20066;-72
2021/01/30 03:13:26;;;;;;;26.53;16.53;;;;;;;0.27;79.00;98572.06;5003489;28;20385;-72
2021/01/30 03:16:26;;;;;;;27.97;17.53;;;;;;;0.10;79.92;98571.13;5021692;28;20396;-73
2021/01/30 03:18:56;;;;;;;27.97;17.87;;;;;;;0.15;79.88;98580.66;4989922;28;20132;-73
2021/01/30 03:21:23;;;;;;;29.23;18.37;;;;;;;0.12;nan;98582.38;5004361;28;20042;-72
2021/01/30 03:23:49;;;;;;;27.40;18.07;;;;;;;-0.02;79.83;98583.19;5003192;28;20089;-73
2021/01/30 03:26:18;;;;;;;31.53;19.53;;;;;;;-0.04;80.12;98602.19;5004264;28;20044;-73
2021/01/30 03:28:46;;;;;;;33.47;21.13;;;;;;;0.02;78.96;98607.38;5006525;28;20076;-72
2021/01/30 03:31:11;;;;;;;30.93;19.30;;;;;;;-0.13;80.40;98603.00;5004361;28;20048;-71
2021/01/30 03:33:37;;;;;;;29.37;20.30;;;;;;;-0.10;79.46;98626.34;5002911;28;20037;-73
2021/01/30 03:36:02;;;;;;;35.30;23.57;;;;;;;-0.23;79.71;98621.94;5002790;28;20030;-72
2021/01/30 03:38:27;;;;;;;36.83;23.33;;;;;;;-0.28;80.14;98628.84;5006058;28;20045;-73
2021/01/30 03:40:53;;;;;;;36.97;22.63;;;;;;;-0.26;79.80;98648.72;5007929;28;20055;-73
2021/01/30 03:43:18;;;;;;;35.37;21.60;;;;;;;-0.22;80.22;98644.41;5004642;28;20046;-73
2021/01/30 03:45:43;;;;;;;37.43;23.67;;;;;;;-0.16;79.38;98646.19;5005992;28;20124;-73
2021/01/30 03:48:09;;;;;;;33.53;20.73;;;;;;;-0.29;80.19;98643.53;5005590;28;20045;-73
2021/01/30 03:50:35;;;;;;;35.90;22.50;;;;;;;-0.25;79.97;98660.81;5002654;28;20096;-73
2021/01/30 03:53:04;;;;;;;31.83;19.73;;;;;;;-0.31;80.41;98659.94;5002737;28;20105;-72
2021/01/30 03:55:29;;;;;;;33.43;20.83;;;;;;;-0.30;80.63;98666.84;5005585;28;20037;-72
2021/01/30 03:57:54;;;;;;;35.83;21.63;;;;;;;-0.29;79.92;98678.91;5004733;28;20407;-73
2021/01/30 04:00:23;;;;;;;36.83;21.33;;;;;;;-0.48;80.25;98681.38;5002483;28;20407;-72
2021/01/30 04:02:48;;;;;;;35.33;19.60;;;;;;;-0.74;81.08;98695.81;5002242;28;20076;-70
2021/01/30 04:05:17;;;;;;;36.53;18.97;;;;;;;-0.76;81.37;98716.53;5003344;28;20046;-72
2021/01/30 04:07:44;;;;;;;33.47;19.83;;;;;;;-0.90;81.71;98725.88;5005963;28;20033;-72
2021/01/30 04:10:13;;;;;;;32.43;19.77;;;;;;;-1.03;82.23;98730.06;5005101;28;20480;-72
2021/01/30 04:12:39;;;;;;;30.60;18.07;;;;;;;-1.01;82.26;98733.53;5002201;28;20049;-71
2021/01/30 04:15:05;;;;;;;27.83;17.37;;;;;;;-0.99;81.76;98737.00;5002060;28;20034;-70
2021/01/30 04:17:31;;;;;;;30.30;18.80;;;;;;;-1.01;82.12;98749.06;5002203;28;20034;-72
2021/01/30 04:19:56;;;;;;;31.77;18.77;;;;;;;-1.00;81.78;98743.03;5002441;28;20500;-72
2021/01/30 04:22:21;;;;;;;29.13;16.97;;;;;;;-1.19;82.65;98766.97;5004192;28;20122;-71
2021/01/30 04:24:46;;;;;;;28.07;17.30;;;;;;;-1.17;82.59;98771.31;5005501;28;20042;-71
2021/01/30 04:27:16;;;;;;;27.80;16.33;;;;;;;-1.28;82.85;98774.59;5004305;28;20065;-72
2021/01/30 04:29:44;;;;;;;26.80;16.10;;;;;;;-1.31;83.13;98780.63;5001818;28;20050;-72
2021/01/30 04:32:10;;;;;;;28.53;16.90;;;;;;;-1.22;82.89;98775.56;5002522;28;20169;-72
2021/01/30 04:34:36;;;;;;;30.43;17.87;;;;;;;-1.35;82.36;98789.19;5005283;28;20057;-71
2021/01/30 04:37:01;;;;;;;31.30;18.87;;;;;;;-1.41;82.98;98795.16;5005049;28;20034;-71
2021/01/30 04:39:27;;;;;;;25.67;16.30;;;;;;;-1.39;82.32;98797.75;5005054;28;20053;-72
2021/01/30 04:42:03;;;;;;;26.73;15.10;;;;;;;-1.45;82.13;98803.72;5005175;28;20033;-72
2021/01/30 04:44:36;;;;;;;25.80;15.97;;;;;;;-1.60;83.24;98800.91;5001952;28;20137;-72
2021/01/30 04:47:07;;;;;;;28.07;16.10;;;;;;;-1.51;83.21;98814.00;5001469;28;20034;-71
2021/01/30 04:50:00;;;;;;;23.40;14.53;;;;;;;-1.43;82.35;98822.72;5001606;28;20623;-72
2021/01/30 04:52:55;;;;;;;25.83;15.47;;;;;;;-1.43;81.82;98827.03;5004377;28;20515;-72
2021/01/30 04:55:40;;;;;;;28.73;13.97;;;;;;;-1.52;82.21;98830.34;5002642;28;20062;-72
2021/01/30 04:58:40;;;;;;;24.03;15.07;;;;;;;-1.55;82.79;98841.53;4999141;28;20042;-72
2021/01/30 05:01:25;;;;;;;22.93;13.37;;;;;;;-1.52;82.51;98850.19;5001268;28;20486;-71
2021/01/30 05:04:12;;;;;;;24.67;14.20;;;;;;;-1.61;83.19;98848.31;5004269;28;20117;-72
2021/01/30 05:07:07;;;;;;;22.60;13.20;;;;;;;-1.56;81.93;98851.84;5001026;28;20042;-72
2021/01/30 05:09:51;;;;;;;21.43;13.23;;;;;;;-1.54;82.20;98868.28;5003970;28;20033;-72
2021/01/30 05:12:26;;;;;;;21.63;13.70;;;;;;;-1.65;82.68;98880.16;5006469;28;20038;-72
2021/01/30 05:15:12;;;;;;;23.60;14.00;;;;;;;-1.66;82.36;98881.88;5001057;28;20064;-72
2021/01/30 05:18:14;;;;;;;20.10;12.27;;;;;;;-1.66;82.43;98899.13;5001121;28;20045;-72
2021/01/30 05:20:46;;;;;;;17.80;10.37;;;;;;;-1.64;82.48;98923.31;5000292;28;20188;-72
2021/01/30 05:23:13;;;;;;;16.13;10.05;;;;;;;-1.71;82.24;98929.22;5001423;28;20172;-73
2021/01/30 05:25:38;;;;;;;18.23;10.53;;;;;;;-1.69;81.96;98935.28;5004005;28;20037;-72
2021/01/30 05:28:18;;;;;;;16.13;9.83;;;;;;;-1.79;82.60;98927.34;5004572;28;20037;-72
2021/01/30 05:30:56;;;;;;;15.70;9.97;;;;;;;-1.81;82.87;98934.25;5005110;28;20093;-72
2021/01/30 05:33:37;;;;;;;13.87;8.63;;;;;;;-1.73;81.86;98943.81;5009962;28;20033;-72
2021/01/30 05:36:12;;;;;;;19.33;11.37;;;;;;;-1.72;81.99;98953.34;5007532;28;20491;-72
2021/01/30 05:39:08;;;;;;;16.07;9.97;;;;;;;-1.79;81.90;98950.63;5008447;28;20543;-72
2021/01/30 05:41:57;;;;;;;17.03;9.20;;;;;;;-1.75;82.57;98951.56;5000717;28;20488;-72
2021/01/30 05:44:36;;;;;;;18.13;10.20;;;;;;;-1.69;81.89;98966.31;5004252;28;20041;-71
2021/01/30 05:47:01;;;;;;;16.33;8.50;;;;;;;-1.69;82.18;98963.75;5006508;28;20088;-72
2021/01/30 05:49:32;;;;;;;15.03;8.33;;;;;;;-1.68;81.85;98975.81;5008142;28;20038;-70
2021/01/30 05:52:07;;;;;;;13.70;7.87;;;;;;;-1.70;81.76;98991.31;5005109;28;20046;-72
2021/01/30 05:54:33;;;;;;;15.47;8.30;;;;;;;-1.68;81.92;98988.75;5008074;28;20452;-71
2021/01/30 05:56:58;;;;;;;16.10;9.03;;;;;;;-1.70;82.65;99004.25;5004352;28;20077;-73
2021/01/30 05:59:26;;;;;;;13.50;7.87;;;;;;;-1.68;82.46;99009.44;5008110;28;20074;-73
2021/01/30 06:02:12;;;;;;;15.27;8.40;;;;;;;-1.67;81.26;99021.56;5010500;28;20045;-72
2021/01/30 06:04:38;;;;;;;17.20;9.27;;;;;;;-1.68;81.71;99032.72;5000478;28;20073;-72
2021/01/30 06:07:05;;;;;;;15.63;9.20;;;;;;;-1.63;81.15;99031.97;5015205;28;20522;-72
2021/01/30 06:09:40;;;;;;;15.67;8.93;;;;;;;-1.60;81.40;99044.09;4999089;28;20053;-72
2021/01/30 06:12:29;;;;;;;14.47;8.60;;;;;;;-1.63;81.70;99044.03;5000138;28;20050;-72
2021/01/30 06:15:14;;;;;;;13.57;8.23;;;;;;;-1.61;81.55;99058.75;5000170;28;20068;-72
2021/01/30 06:17:41;;;;;;;14.97;8.37;;;;;;;-1.58;80.87;99055.34;5000285;28;20445;-72
2021/01/30 06:20:23;;;;;;;13.73;8.47;;;;;;;-1.63;81.45;99064.72;5000201;28;20066;-72
2021/01/30 06:23:11;;;;;;;15.57;9.30;;;;;;;-1.64;80.95;99070.75;5003512;28;20084;-72
2021/01/30 06:25:39;;;;;;;14.03;8.33;;;;;;;-1.64;80.92;99069.03;4999863;28;20600;-73
2021/01/30 06:28:15;;;;;;;13.57;8.70;;;;;;;-1.60;81.09;99077.72;5015288;28;20404;-73
2021/01/30 06:30:44;;;;;;;15.60;8.53;;;;;;;-1.67;81.81;99083.63;5000100;28;20038;-72
2021/01/30 06:33:30;;;;;;;16.43;8.70;;;;;;;-1.68;81.94;99081.88;5003816;28;20472;-72
2021/01/30 06:36:06;;;;;;;18.37;9.70;;;;;;;-1.65;81.52;99100.03;5010413;28;20091;-72
2021/01/30 06:38:38;;;;;;;14.83;8.53;;;;;;;-1.65;81.69;99097.44;5008218;28;20034;-71
2021/01/30 06:41:05;;;;;;;14.77;8.13;;;;;;;-1.53;81.12;99110.63;5015195;28;20045;-72
2021/01/30 06:43:34;;;;;;;14.30;9.17;;;;;;;-1.63;81.52;99116.47;5007286;28;20423;-72
2021/01/30 06:46:12;;;;;;;15.57;8.87;;;;;;;-1.58;80.87;99122.59;5007959;28;20049;-72
2021/01/30 06:48:46;;;;;;;13.93;8.43;;;;;;;-1.56;81.14;99129.56;5014098;28;20517;-72
2021/01/30 06:51:34;;;;;;;14.70;8.87;;;;;;;-1.54;81.46;99142.53;5011913;28;20030;-72
2021/01/30 06:54:21;;;;;;;19.03;11.37;;;;;;;-1.60;81.68;99147.56;5003803;28;20086;-72
2021/01/30 06:57:01;;;;;;;14.50;8.87;;;;;;;-1.52;81.76;99161.53;5003508;28;20069;-72
2021/01/30 06:59:30;;;;;;;16.17;9.23;;;;;;;-1.45;81.03;99158.22;5006307;28;20108;-72
2021/01/30 07:01:56;;;;;;;14.67;9.20;;;;;;;-1.50;80.94;99162.44;5006876;28;20038;-72
2021/01/30 07:04:24;;;;;;;18.23;10.67;;;;;;;-1.60;81.49;99169.16;5005596;28;20030;-72
2021/01/30 07:07:08;;;;;;;16.13;9.57;;;;;;;-1.60;81.84;99174.34;5014662;28;20038;-72
2021/01/30 07:10:00;;;;;;;14.87;9.53;;;;;;;-1.59;81.37;99180.38;5003540;28;20551;-72
2021/01/30 07:12:30;;;;;;;15.80;9.37;;;;;;;-1.62;82.14;99178.59;4993127;28;20501;-72
2021/01/30 07:15:07;;;;;;;17.87;9.70;;;;;;;-1.60;81.23;99186.38;5003640;28;20088;-72
2021/01/30 07:17:54;;;;;;;16.00;9.87;;;;;;;-1.62;81.54;99195.84;5003446;28;20513;-71
2021/01/30 07:20:29;;;;;;;14.90;9.33;;;;;;;-1.59;82.36;99198.50;5005292;28;20404;-72
2021/01/30 07:23:13;;;;;;;15.07;9.63;;;;;;;-1.55;81.20;99208.03;5006684;28;20499;-71
2021/01/30 07:25:57;;;;;;;17.43;10.20;;;;;;;-1.46;81.94;99216.00;5002806;28;20169;-72
2021/01/30 07:28:29;;;;;;;16.67;10.40;;;;;;;-1.36;81.21;99217.97;5020616;28;20100;-72
2021/01/30 07:31:16;;;;;;;18.17;10.57;;;;;;;-1.26;81.29;99221.59;5006348;28;20046;-72
2021/01/30 07:33:51;;;;;;;15.53;10.73;;;;;;;-1.23;81.09;99229.44;5003034;28;20515;-72
2021/01/30 07:36:28;;;;;;;18.80;11.00;;;;;;;-1.11;80.64;99223.59;5004024;28;20069;-72
2021/01/30 07:39:01;;;;;;;16.43;10.57;;;;;;;-1.16;80.79;99231.28;5006178;28;20025;-72
2021/01/30 07:41:30;;;;;;;19.10;10.87;;;;;;;-1.08;80.64;99234.03;5006156;28;20496;-72
2021/01/30 07:44:06;;;;;;;16.20;10.83;;;;;;;-1.06;80.18;99237.53;5006074;28;20048;-71
2021/01/30 07:46:38;;;;;;;16.37;9.90;;;;;;;-0.84;79.26;99241.38;5002204;28;20034;-71
2021/01/30 07:49:11;;;;;;;18.50;9.87;;;;;;;-0.85;80.14;99233.59;5002828;28;20460;-71
2021/01/30 07:52:04;;;;;;;18.50;10.90;;;;;;;-0.79;79.00;99238.88;5002666;28;20401;-72
2021/01/30 07:54:30;;;;;;;14.93;10.48;;;;;;;-0.78;79.34;99243.25;5005743;28;20029;-71
2021/01/30 07:57:16;;;;;;;15.03;9.23;;;;;;;-0.71;78.83;99239.91;5005574;28;20377;-71
2021/01/30 07:59:53;;;;;;;15.17;9.10;;;;;;;-0.62;78.87;99245.25;5002467;28;20507;-72
2021/01/30 08:02:50;;;;;;;17.10;11.07;;;;;;;-0.57;78.82;99247.94;5004128;28;20030;-72
2021/01/30 08:05:43;;;;;;;17.57;10.93;;;;;;;-0.48;78.48;99261.91;5007954;28;20034;-72
2021/01/30 08:08:26;;;;;;;18.07;10.80;;;;;;;-0.39;78.63;99260.31;5010176;28;20046;-72
2021/01/30 08:10:56;;;;;;;15.38;9.63;;;;;;;-0.35;78.50;99265.59;5009866;28;20428;-72
2021/01/30 08:13:34;;;;;;;16.73;10.80;;;;;;;-0.31;78.26;99261.34;5005508;28;20042;-72
2021/01/30 08:16:29;;;;;;;15.17;9.97;;;;;;;-0.40;77.83;99267.25;5003810;28;20126;-72
2021/01/30 08:18:59;;;;;;;16.80;10.17;;;;;;;-0.25;78.22;99277.88;5012176;28;20514;-72
2021/01/30 08:21:36;;;;;;;16.03;10.07;;;;;;;-0.21;78.06;99276.19;5002912;28;20038;-72
2021/01/30 08:24:09;;;;;;;16.70;10.83;;;;;;;-0.18;77.14;99281.47;5004924;28;20030;-71
2021/01/30 08:26:56;;;;;;;14.63;9.20;;;;;;;-0.08;77.21;99283.38;5009624;28;20033;-72
2021/01/30 08:29:42;;;;;;;15.47;9.70;;;;;;;-0.10;76.93;99287.66;5010235;28;20045;-72
2021/01/30 08:32:25;;;;;;;14.97;9.17;;;;;;;-0.13;76.97;99295.38;5005926;28;20033;-70
2021/01/30 08:34:56;;;;;;;15.87;10.90;;;;;;;0.08;77.51;99289.66;5007418;28;20037;-71
2021/01/30 08:37:27;;;;;;;15.83;10.97;;;;;;;0.29;76.58;99296.03;5004640;28;20035;-72
2021/01/30 08:40:01;;;;;;;17.87;9.33;;;;;;;0.40;75.56;99295.34;5008621;28;20038;-70
2021/01/30 08:42:33;;;;;;;16.07;10.30;;;;;;;0.59;75.55;99295.63;5008162;28;20033;-71
2021/01/30 08:45:05;;;;;;;16.20;10.87;;;;;;;0.57;74.43;99302.50;5012663;28;20073;-72
2021/01/30 08:47:55;;;;;;;16.57;10.57;;;;;;;0.56;74.47;99305.97;5002356;28;20034;-71
2021/01/30 08:50:26;;;;;;;15.30;10.43;;;;;;;0.50;75.25;99306.75;5009126;28;20040;-71
2021/01/30 08:53:09;;;;;;;15.20;9.97;;;;;;;0.50;74.34;99305.84;5001407;28;20043;-71
2021/01/30 08:55:44;;;;;;;18.47;11.67;;;;;;;0.31;75.29;99309.91;5001067;28;20157;-70
2021/01/30 08:58:35;;;;;;;17.87;11.43;;;;;;;0.31;75.62;99310.75;5008343;28;20037;-71
2021/01/30 09:01:02;;;;;;;20.13;12.43;;;;;;;0.23;75.18;99314.97;5000330;28;20030;-71
2021/01/30 09:03:48;;;;;;;20.33;11.40;;;;;;;0.27;75.28;99308.13;5003666;28;20080;-72
2021/01/30 09:06:38;;;;;;;22.47;12.90;;;;;;;0.33;76.13;99321.19;5004199;28;20034;-71
2021/01/30 09:09:25;;;;;;;20.40;12.40;;;;;;;0.53;74.54;99331.88;5004326;28;20395;-71
2021/01/30 09:11:55;;;;;;;20.73;13.40;;;;;;;0.35;75.03;99322.94;5001133;28;20459;-71
2021/01/30 09:14:20;;;;;;;23.50;13.13;;;;;;;0.50;75.71;99337.91;5002946;28;20440;-71
2021/01/30 09:17:18;;;;;;;19.30;12.53;;;;;;;0.72;73.69;99339.06;5004090;28;20030;-71
2021/01/30 09:20:22;;;;;;;23.17;13.07;;;;;;;0.75;73.95;99336.50;5000720;28;20048;-71
2021/01/30 09:23:38;;;;;;;21.25;13.75;;;;;;;0.81;73.74;99333.13;5000521;28;20535;-71
2021/01/30 09:26:25;;;;;;;19.83;13.23;;;;;;;0.72;74.13;99333.88;4994747;28;20084;-71
2021/01/30 09:29:01;;;;;;;21.00;13.37;;;;;;;0.73;74.03;99330.41;5000893;28;20066;-71
2021/01/30 09:31:27;;;;;;;25.40;14.97;;;;;;;0.86;74.18;99334.97;5003210;28;20042;-72
2021/01/30 09:34:05;;;;;;;20.73;13.20;;;;;;;1.07;73.85;99328.28;5004678;28;20030;-72
2021/01/30 09:36:42;;;;;;;19.60;13.17;;;;;;;1.03;72.70;99324.78;5000401;28;20034;-71
2021/01/30 09:39:32;;;;;;;18.80;12.30;;;;;;;0.92;73.59;99335.88;5003742;28;20034;-72
2021/01/30 09:42:10;;;;;;;20.37;13.00;;;;;;;1.01;73.56;99336.00;5003702;28;20087;-73
2021/01/30 09:44:36;;;;;;;20.60;13.67;;;;;;;1.16;73.60;99325.81;5000073;28;20034;-71
2021/01/30 09:47:10;;;;;;;20.23;14.10;;;;;;;1.18;73.56;99333.59;5000353;28;20050;-72
2021/01/30 09:49:44;;;;;;;20.47;13.10;;;;;;;1.42;72.32;99333.06;5000197;28;20038;-72
2021/01/30 09:52:13;;;;;;;22.67;12.23;;;;;;;1.66;72.28;99337.63;5000784;28;20042;-72
2021/01/30 09:54:39;;;;;;;19.63;12.67;;;;;;;1.67;71.70;99337.63;5003624;28;20049;-72
2021/01/30 09:57:22;;;;;;;16.37;11.17;;;;;;;1.54;72.09;99343.56;5003528;28;20051;-72
2021/01/30 10:00:03;;;;;;;22.70;13.40;;;;;;;1.51;71.92;99346.13;4999972;28;20030;-72
2021/01/30 10:02:37;;;;;;;19.60;12.80;;;;;;;1.45;72.41;99348.69;5000071;28;20448;-73
2021/01/30 10:05:05;;;;;;;18.13;11.23;;;;;;;1.34;73.28;99355.47;5009800;28;20041;-73
2021/01/30 10:07:31;;;;;;;15.60;9.83;;;;;;;1.20;72.87;99360.50;4999765;28;20386;-72
2021/01/30 10:09:57;;;;;;;14.53;9.77;;;;;;;1.31;72.37;99367.59;4999987;28;20042;-72
2021/01/30 10:12:24;;;;;;;14.20;9.27;;;;;;;1.24;72.47;99368.34;5001674;28;20184;-72
2021/01/30 10:14:53;;;;;;;15.10;10.30;;;;;;;1.25;72.65;99366.63;5004769;28;20540;-73
2021/01/30 10:17:26;;;;;;;14.73;9.33;;;;;;;1.27;72.33;99371.00;5000748;28;20456;-75
2021/01/30 10:20:18;;;;;;;13.37;8.67;;;;;;;1.22;72.29;99367.47;5000571;28;20104;-73
2021/01/30 10:22:46;;;;;;;13.17;10.20;;;;;;;1.17;72.93;99361.31;4995821;28;20054;-73
2021/01/30 10:25:23;;;;;;;14.70;9.17;;;;;;;1.48;72.41;99370.38;5000499;28;20038;-73
2021/01/30 10:27:48;;;;;;;13.17;8.33;;;;;;;1.42;71.28;99366.84;5003498;28;20042;-73
2021/01/30 10:30:17;;;;;;;13.80;8.57;;;;;;;1.45;72.61;99359.94;5002303;28;20045;-73
2021/01/30 10:32:49;;;;;;;14.17;8.33;;;;;;;1.55;71.43;99355.72;4999990;28;20489;-73
2021/01/30 10:35:53;;;;;;;11.98;7.75;;;;;;;1.42;71.92;99364.25;5000883;28;20042;-73
2021/01/30 10:38:21;;;;;;;12.10;8.30;;;;;;;1.38;71.26;99376.31;4970132;28;20097;-74
2021/01/30 10:40:56;;;;;;;12.57;7.30;;;;;;;1.38;71.75;99378.91;4970026;28;20054;-73
2021/01/30 10:43:30;;;;;;;9.63;6.70;;;;;;;1.51;70.79;99383.41;4984137;28;20050;-73
2021/01/30 10:46:01;;;;;;;11.47;8.23;;;;;;;1.36;71.01;99395.34;5003054;28;20038;-75
2021/01/30 10:48:32;;;;;;;11.37;7.40;;;;;;;1.52;71.18;99392.97;5000628;28;20111;-74
2021/01/30 10:51:21;;;;;;;11.13;7.07;;;;;;;1.64;70.66;99389.63;5003414;28;20038;-73
2021/01/30 10:53:46;;;;;;;10.10;5.50;;;;;;;1.85;69.31;99386.38;5004573;28;20038;-74
2021/01/30 10:56:28;;;;;;;9.90;6.00;;;;;;;1.69;69.82;99385.34;5002036;28;20042;-74
2021/01/30 10:58:54;;;;;;;8.90;6.00;;;;;;;1.93;70.21;99389.06;4999499;28;20188;-73
2021/01/30 11:01:19;;;;;;;10.88;6.28;;;;;;;1.90;68.97;99389.03;5000268;28;20417;-73
2021/01/30 11:03:48;;;;;;;10.02;6.13;;;;;;;2.03;69.29;99397.84;5002717;28;20113;-73
2021/01/30 11:06:16;;;;;;;18.15;9.50;;;;;;;1.90;67.85;99394.25;5001698;28;20527;-70
2021/01/30 11:08:41;;;;;;;13.30;6.97;;;;;;;1.44;70.01;99401.50;5003948;28;20034;-69
2021/01/30 11:11:10;;;;;;;24.20;14.30;;;;;;;1.47;69.38;99396.38;5002851;28;20542;-70
2021/01/30 11:13:38;;;;;;;15.77;8.60;;;;;;;1.28;69.96;99398.75;5001003;28;20369;-70
2021/01/30 11:16:11;;;;;;;16.87;10.13;;;;;;;1.39;70.26;99404.09;4995823;28;20046;-69
2021/01/30 11:18:39;;;;;;;18.37;10.90;;;;;;;1.53;70.10;99406.84;4999385;28;20030;-70
2021/01/30 11:21:08;;;;;;;16.57;8.57;;;;;;;1.71;70.54;99403.59;5001982;28;20455;-70
2021/01/30 11:23:46;;;;;;;13.03;7.93;;;;;;;1.95;69.61;99408.19;5008972;28;20046;-70
2021/01/30 11:26:15;;;;;;;12.07;7.37;;;;;;;1.83;68.70;99413.25;5003548;28;20061;-70
2021/01/30 11:28:41;;;;;;;11.63;7.00;;;;;;;1.80;68.14;99402.81;5006332;28;20034;-69
2021/01/30 11:31:09;;;;;;;10.90;7.17;;;;;;;1.77;68.39;99400.19;5007622;28;20025;-69
2021/01/30 11:33:35;;;;;;;9.87;6.73;;;;;;;1.80;69.63;99402.81;5008514;28;20114;-69
2021/01/30 11:36:00;;;;;;;11.27;6.35;;;;;;;1.85;69.37;99399.41;5010371;28;20113;-68
2021/01/30 11:38:27;;;;;;;9.02;5.85;;;;;;;1.85;68.14;99402.00;5008826;28;20468;-69
2021/01/30 11:40:55;;;;;;;13.00;6.82;;;;;;;1.63;69.24;99406.09;5009755;28;20034;-69
2021/01/30 11:43:22;;;;;;;9.47;6.47;;;;;;;1.56;69.09;99408.59;5006698;28;20119;-69
2021/01/30 11:45:48;;;;;;;10.73;6.67;;;;;;;1.57;69.00;99416.41;5008562;28;20125;-69
2021/01/30 11:48:14;;;;;;;11.37;6.67;;;;;;;1.48;69.44;99406.78;5012258;28;20030;-70
2021/01/30 11:50:40;;;;;;;11.07;6.83;;;;;;;1.47;69.35;99417.19;5005999;28;20496;-70
2021/01/30 11:53:13;;;;;;;11.07;6.13;;;;;;;1.36;69.01;99410.94;5013824;28;20488;-69
2021/01/30 11:55:40;;;;;;;10.20;6.53;;;;;;;1.52;69.90;99412.91;5012755;28;20045;-70